sensor_id;sensor_type;location;lat;lon;timestamp;pressure;altitude;pressure_sealevel;temperature;humidity
60212;BME280;46079;48.686;15.598;2023-03-03T00:00:44;100037.19;;;19.85;37.32
60212;BME280;46079;48.686;15.598;2023-03-03T00:03:13;100046.03;;;19.84;37.18
60212;BME280;46079;48.686;15.598;2023-03-03T00:05:40;100045.19;;;19.84;37.26
60212;BME280;46079;48.686;15.598;2023-03-03T00:08:07;100041.75;;;19.83;37.12
60212;BME280;46079;48.686;15.598;2023-03-03T00:10:33;100050.44;;;19.84;37.15
60212;BME280;46079;48.686;15.598;2023-03-03T00:12:59;100045.31;;;19.82;37.20
60212;BME280;46079;48.686;15.598;2023-03-03T00:15:25;100050.44;;;19.84;37.24
60212;BME280;46079;48.686;15.598;2023-03-03T00:17:52;100041.03;;;19.81;37.19
60212;BME280;46079;48.686;15.598;2023-03-03T00:20:37;100035.78;;;19.81;36.93
60212;BME280;46079;48.686;15.598;2023-03-03T00:23:13;100034.97;;;19.81;36.93
60212;BME280;46079;48.686;15.598;2023-03-03T00:25:45;100034.97;;;19.81;37.12
60212;BME280;46079;48.686;15.598;2023-03-03T00:30:50;100045.47;;;19.81;37.14
60212;BME280;46079;48.686;15.598;2023-03-03T00:33:25;100033.28;;;19.80;36.94
60212;BME280;46079;48.686;15.598;2023-03-03T00:35:55;100039.41;;;19.80;37.05
60212;BME280;46079;48.686;15.598;2023-03-03T00:38:21;100029.84;;;19.79;36.94
60212;BME280;46079;48.686;15.598;2023-03-03T00:40:47;100034.25;;;19.79;36.98
60212;BME280;46079;48.686;15.598;2023-03-03T00:43:24;100033.44;;;19.78;37.02
60212;BME280;46079;48.686;15.598;2023-03-03T00:45:56;100029.00;;;19.79;36.97
60212;BME280;46079;48.686;15.598;2023-03-03T00:48:22;100036.06;;;19.78;37.01
60212;BME280;46079;48.686;15.598;2023-03-03T00:50:49;100031.75;;;19.77;37.14
60212;BME280;46079;48.686;15.598;2023-03-03T00:53:19;100026.66;;;19.75;37.03
60212;BME280;46079;48.686;15.598;2023-03-03T00:55:47;100023.88;;;19.77;37.06
60212;BME280;46079;48.686;15.598;2023-03-03T00:58:13;100022.22;;;19.76;37.05
60212;BME280;46079;48.686;15.598;2023-03-03T01:00:39;100016.16;;;19.75;37.08
60212;BME280;46079;48.686;15.598;2023-03-03T01:03:08;100017.94;;;19.75;36.93
60212;BME280;46079;48.686;15.598;2023-03-03T01:05:34;100009.94;;;19.76;37.02
60212;BME280;46079;48.686;15.598;2023-03-03T01:08:00;100016.97;;;19.76;37.08
60212;BME280;46079;48.686;15.598;2023-03-03T01:10:27;100017.94;;;19.75;36.76
60212;BME280;46079;48.686;15.598;2023-03-03T01:12:54;100008.41;;;19.74;36.96
60212;BME280;46079;48.686;15.598;2023-03-03T01:15:22;100008.41;;;19.74;36.96
60212;BME280;46079;48.686;15.598;2023-03-03T01:17:47;100009.22;;;19.74;36.95
60212;BME280;46079;48.686;15.598;2023-03-03T01:20:13;100008.41;;;19.74;36.88
60212;BME280;46079;48.686;15.598;2023-03-03T01:22:40;100002.31;;;19.73;36.88
60212;BME280;46079;48.686;15.598;2023-03-03T01:25:06;100006.75;;;19.73;36.74
60212;BME280;46079;48.686;15.598;2023-03-03T01:27:33;100006.75;;;19.73;37.02
60212;BME280;46079;48.686;15.598;2023-03-03T01:29:59;100002.47;;;19.72;36.74
60212;BME280;46079;48.686;15.598;2023-03-03T01:32:25;99998.88;;;19.73;36.93
60212;BME280;46079;48.686;15.598;2023-03-03T01:34:51;100010.34;;;19.72;37.02
60212;BME280;46079;48.686;15.598;2023-03-03T01:37:18;99992.91;;;19.71;36.98
60212;BME280;46079;48.686;15.598;2023-03-03T01:39:47;99999.00;;;19.71;36.81
60212;BME280;46079;48.686;15.598;2023-03-03T01:42:13;99999.84;;;19.72;36.84
60212;BME280;46079;48.686;15.598;2023-03-03T01:44:39;99995.53;;;19.71;36.94
60212;BME280;46079;48.686;15.598;2023-03-03T01:47:27;99993.88;;;19.70;36.65
60212;BME280;46079;48.686;15.598;2023-03-03T01:50:04;99991.25;;;19.70;36.91
60212;BME280;46079;48.686;15.598;2023-03-03T01:52:32;99999.97;;;19.70;36.87
60212;BME280;46079;48.686;15.598;2023-03-03T01:55:02;99994.84;;;19.69;36.76
60212;BME280;46079;48.686;15.598;2023-03-03T01:57:38;100001.88;;;19.68;36.99
60212;BME280;46079;48.686;15.598;2023-03-03T02:00:06;99996.63;;;19.68;36.63
60212;BME280;46079;48.686;15.598;2023-03-03T02:02:32;99993.19;;;19.68;36.69
60212;BME280;46079;48.686;15.598;2023-03-03T02:04:59;99991.53;;;19.67;37.01
60212;BME280;46079;48.686;15.598;2023-03-03T02:07:26;99990.69;;;19.66;36.66
60212;BME280;46079;48.686;15.598;2023-03-03T02:10:00;100000.34;;;19.66;36.72
60212;BME280;46079;48.686;15.598;2023-03-03T02:12:38;99984.59;;;19.66;36.76
60212;BME280;46079;48.686;15.598;2023-03-03T02:15:22;99989.00;;;19.65;36.71
60212;BME280;46079;48.686;15.598;2023-03-03T02:17:52;99982.91;;;19.65;36.90
60212;BME280;46079;48.686;15.598;2023-03-03T02:20:34;99990.69;;;19.66;36.49
60212;BME280;46079;48.686;15.598;2023-03-03T02:23:19;99977.66;;;19.65;36.65
60212;BME280;46079;48.686;15.598;2023-03-03T02:28:26;99982.91;;;19.65;36.67
60212;BME280;46079;48.686;15.598;2023-03-03T02:30:57;99989.16;;;19.64;37.06
60212;BME280;46079;48.686;15.598;2023-03-03T02:33:23;99981.28;;;19.64;36.63
60212;BME280;46079;48.686;15.598;2023-03-03T02:35:50;99983.91;;;19.64;36.99
60212;BME280;46079;48.686;15.598;2023-03-03T02:39:17;99976.03;;;19.64;36.73
60212;BME280;46079;48.686;15.598;2023-03-03T02:43:42;99974.34;;;19.63;36.71
60212;BME280;46079;48.686;15.598;2023-03-03T02:46:09;99979.59;;;19.63;36.84
60212;BME280;46079;48.686;15.598;2023-03-03T02:48:35;99975.31;;;19.62;36.73
60212;BME280;46079;48.686;15.598;2023-03-03T02:51:00;99971.88;;;19.61;36.81
60212;BME280;46079;48.686;15.598;2023-03-03T02:53:26;99974.50;;;19.61;36.76
60212;BME280;46079;48.686;15.598;2023-03-03T02:55:51;99974.50;;;19.61;36.89
60212;BME280;46079;48.686;15.598;2023-03-03T02:58:16;99975.44;;;19.60;36.69
60212;BME280;46079;48.686;15.598;2023-03-03T03:00:42;99974.59;;;19.60;36.86
60212;BME280;46079;48.686;15.598;2023-03-03T03:03:07;99979.84;;;19.60;36.46
60212;BME280;46079;48.686;15.598;2023-03-03T03:05:33;99972.97;;;19.59;36.64
60212;BME280;46079;48.686;15.598;2023-03-03T03:07:58;99970.34;;;19.59;36.55
60212;BME280;46079;48.686;15.598;2023-03-03T03:10:24;99973.78;;;19.59;36.66
60212;BME280;46079;48.686;15.598;2023-03-03T03:12:51;99969.50;;;19.58;36.81
60212;BME280;46079;48.686;15.598;2023-03-03T03:15:16;99965.91;;;19.59;36.75
60212;BME280;46079;48.686;15.598;2023-03-03T03:17:42;99967.81;;;19.57;36.74
60212;BME280;46079;48.686;15.598;2023-03-03T03:20:08;99968.66;;;19.58;36.60
60212;BME280;46079;48.686;15.598;2023-03-03T03:22:34;99962.59;;;19.57;36.53
60212;BME280;46079;48.686;15.598;2023-03-03T03:24:59;99969.63;;;19.57;36.54
60212;BME280;46079;48.686;15.598;2023-03-03T03:27:24;99959.13;;;19.57;36.61
60212;BME280;46079;48.686;15.598;2023-03-03T03:29:50;99959.13;;;19.57;36.47
60212;BME280;46079;48.686;15.598;2023-03-03T03:32:15;99957.47;;;19.55;36.58
60212;BME280;46079;48.686;15.598;2023-03-03T03:34:42;99955.69;;;19.56;36.61
60212;BME280;46079;48.686;15.598;2023-03-03T03:37:07;99952.22;;;19.55;36.58
60212;BME280;46079;48.686;15.598;2023-03-03T03:39:34;99958.44;;;19.54;36.72
60212;BME280;46079;48.686;15.598;2023-03-03T03:42:00;99955.81;;;19.54;36.55
60212;BME280;46079;48.686;15.598;2023-03-03T03:44:25;99951.53;;;19.53;36.51
60212;BME280;46079;48.686;15.598;2023-03-03T03:46:51;99953.31;;;19.53;36.50
60212;BME280;46079;48.686;15.598;2023-03-03T03:49:16;99956.88;;;19.52;36.52
60212;BME280;46079;48.686;15.598;2023-03-03T03:51:42;99960.22;;;19.54;36.52
60212;BME280;46079;48.686;15.598;2023-03-03T03:54:07;99950.81;;;19.51;36.53
60212;BME280;46079;48.686;15.598;2023-03-03T03:56:32;99951.66;;;19.52;36.49
60212;BME280;46079;48.686;15.598;2023-03-03T03:58:58;99956.88;;;19.52;36.36
60212;BME280;46079;48.686;15.598;2023-03-03T04:01:25;99956.06;;;19.51;36.59
60212;BME280;46079;48.686;15.598;2023-03-03T04:03:51;99955.25;;;19.51;36.62
60212;BME280;46079;48.686;15.598;2023-03-03T04:06:17;99954.41;;;19.50;36.54
60212;BME280;46079;48.686;15.598;2023-03-03T04:08:42;99951.91;;;19.49;36.59
60212;BME280;46079;48.686;15.598;2023-03-03T04:11:08;99957.03;;;19.50;36.51
60212;BME280;46079;48.686;15.598;2023-03-03T04:13:33;99963.22;;;19.49;36.44
60212;BME280;46079;48.686;15.598;2023-03-03T04:16:02;99964.09;;;19.50;36.30
60212;BME280;46079;48.686;15.598;2023-03-03T04:18:27;99963.22;;;19.49;36.36
60212;BME280;46079;48.686;15.598;2023-03-03T04:20:53;99972.91;;;19.49;36.41
60212;BME280;46079;48.686;15.598;2023-03-03T04:23:19;99966.81;;;19.48;36.41
60212;BME280;46079;48.686;15.598;2023-03-03T04:25:46;99972.06;;;19.48;36.43
60212;BME280;46079;48.686;15.598;2023-03-03T04:28:13;99972.91;;;19.49;36.20
60212;BME280;46079;48.686;15.598;2023-03-03T04:30:39;99969.56;;;19.47;36.39
60212;BME280;46079;48.686;15.598;2023-03-03T04:33:04;99970.44;;;19.47;36.30
60212;BME280;46079;48.686;15.598;2023-03-03T04:35:30;99970.44;;;19.47;36.37
60212;BME280;46079;48.686;15.598;2023-03-03T04:37:55;99967.91;;;19.46;36.54
60212;BME280;46079;48.686;15.598;2023-03-03T04:40:20;99972.34;;;19.45;36.27
60212;BME280;46079;48.686;15.598;2023-03-03T04:42:46;99979.22;;;19.46;36.37
60212;BME280;46079;48.686;15.598;2023-03-03T04:45:11;99981.84;;;19.46;36.26
60212;BME280;46079;48.686;15.598;2023-03-03T04:47:37;99976.75;;;19.45;36.49
60212;BME280;46079;48.686;15.598;2023-03-03T04:50:03;99972.34;;;19.45;36.47
60212;BME280;46079;48.686;15.598;2023-03-03T04:52:28;99974.25;;;19.43;36.36
60212;BME280;46079;48.686;15.598;2023-03-03T04:54:54;99970.66;;;19.44;36.29
60212;BME280;46079;48.686;15.598;2023-03-03T04:57:19;99974.25;;;19.43;36.42
60212;BME280;46079;48.686;15.598;2023-03-03T04:59:45;99983.78;;;19.44;36.40
60212;BME280;46079;48.686;15.598;2023-03-03T05:02:10;99973.44;;;19.43;36.20
60212;BME280;46079;48.686;15.598;2023-03-03T05:04:37;99986.53;;;19.43;36.40
60212;BME280;46079;48.686;15.598;2023-03-03T05:07:03;99982.28;;;19.42;36.58
60212;BME280;46079;48.686;15.598;2023-03-03T05:09:28;99977.84;;;19.42;36.19
60212;BME280;46079;48.686;15.598;2023-03-03T05:11:54;99971.78;;;19.42;36.50
60212;BME280;46079;48.686;15.598;2023-03-03T05:14:19;99976.16;;;19.41;36.30
60212;BME280;46079;48.686;15.598;2023-03-03T05:16:45;99977.03;;;19.42;36.39
60212;BME280;46079;48.686;15.598;2023-03-03T05:19:11;99980.59;;;19.41;36.36
60212;BME280;46079;48.686;15.598;2023-03-03T05:21:36;99976.16;;;19.41;36.12
60212;BME280;46079;48.686;15.598;2023-03-03T05:24:10;99971.88;;;19.40;36.34
60212;BME280;46079;48.686;15.598;2023-03-03T05:26:36;99979.88;;;19.39;36.36
60212;BME280;46079;48.686;15.598;2023-03-03T05:29:02;99976.44;;;19.38;36.28
60212;BME280;46079;48.686;15.598;2023-03-03T05:31:28;99982.50;;;19.39;36.16
60212;BME280;46079;48.686;15.598;2023-03-03T05:33:53;99981.69;;;19.38;36.31
60212;BME280;46079;48.686;15.598;2023-03-03T05:36:19;99996.47;;;19.39;36.32
60212;BME280;46079;48.686;15.598;2023-03-03T05:38:44;100002.66;;;19.38;36.15
60212;BME280;46079;48.686;15.598;2023-03-03T05:41:10;100002.66;;;19.38;36.38
60212;BME280;46079;48.686;15.598;2023-03-03T05:43:35;100007.06;;;19.38;36.28
60212;BME280;46079;48.686;15.598;2023-03-03T05:46:01;100009.69;;;19.38;36.28
60212;BME280;46079;48.686;15.598;2023-03-03T05:48:26;100012.44;;;19.36;36.38
60212;BME280;46079;48.686;15.598;2023-03-03T05:50:52;100010.69;;;19.37;35.84
60212;BME280;46079;48.686;15.598;2023-03-03T05:53:18;100015.06;;;19.36;36.06
60212;BME280;46079;48.686;15.598;2023-03-03T05:55:43;100010.69;;;19.37;35.72
60212;BME280;46079;48.686;15.598;2023-03-03T05:58:09;100025.56;;;19.36;36.40
60212;BME280;46079;48.686;15.598;2023-03-03T06:00:34;100026.53;;;19.35;36.34
60212;BME280;46079;48.686;15.598;2023-03-03T06:03:00;100017.69;;;19.36;36.05
60212;BME280;46079;48.686;15.598;2023-03-03T06:05:25;100026.41;;;19.37;36.32
60212;BME280;46079;48.686;15.598;2023-03-03T06:07:51;100025.56;;;19.36;36.12
60212;BME280;46079;48.686;15.598;2023-03-03T06:10:16;100023.91;;;19.35;36.16
60212;BME280;46079;48.686;15.598;2023-03-03T06:12:41;100028.19;;;19.36;36.11
60212;BME280;46079;48.686;15.598;2023-03-03T06:15:07;100032.59;;;19.36;36.08
60212;BME280;46079;48.686;15.598;2023-03-03T06:17:33;100031.78;;;19.35;36.19
60212;BME280;46079;48.686;15.598;2023-03-03T06:19:59;100037.00;;;19.35;36.26
60212;BME280;46079;48.686;15.598;2023-03-03T06:22:24;100034.41;;;19.35;36.13
60212;BME280;46079;48.686;15.598;2023-03-03T06:24:50;100044.88;;;19.35;36.23
60212;BME280;46079;48.686;15.598;2023-03-03T06:27:17;100044.88;;;19.35;36.38
60212;BME280;46079;48.686;15.598;2023-03-03T06:29:42;100045.72;;;19.36;36.22
60212;BME280;46079;48.686;15.598;2023-03-03T06:32:08;100042.25;;;19.35;36.19
60212;BME280;46079;48.686;15.598;2023-03-03T06:34:33;100044.06;;;19.35;35.95
60212;BME280;46079;48.686;15.598;2023-03-03T06:36:59;100047.50;;;19.35;36.16
60212;BME280;46079;48.686;15.598;2023-03-03T06:39:24;100045.84;;;19.34;35.92
60212;BME280;46079;48.686;15.598;2023-03-03T06:41:50;100052.63;;;19.37;35.92
60212;BME280;46079;48.686;15.598;2023-03-03T06:44:15;100052.63;;;19.37;36.18
60212;BME280;46079;48.686;15.598;2023-03-03T06:46:41;100056.09;;;19.37;36.15
60212;BME280;46079;48.686;15.598;2023-03-03T06:49:06;100061.34;;;19.37;36.23
60212;BME280;46079;48.686;15.598;2023-03-03T06:51:34;100058.56;;;19.39;36.08
60212;BME280;46079;48.686;15.598;2023-03-03T06:54:21;100056.81;;;19.39;35.92
60212;BME280;46079;48.686;15.598;2023-03-03T06:56:48;100059.44;;;19.39;35.90
60212;BME280;46079;48.686;15.598;2023-03-03T06:59:19;100056.81;;;19.39;35.98
60212;BME280;46079;48.686;15.598;2023-03-03T07:01:47;100060.25;;;19.40;36.09
60212;BME280;46079;48.686;15.598;2023-03-03T07:04:34;100064.66;;;19.39;35.93
60212;BME280;46079;48.686;15.598;2023-03-03T07:07:07;100062.06;;;19.39;35.72
60212;BME280;46079;48.686;15.598;2023-03-03T07:09:35;100058.44;;;19.40;36.03
60212;BME280;46079;48.686;15.598;2023-03-03T07:12:05;100060.25;;;19.40;36.08
60212;BME280;46079;48.686;15.598;2023-03-03T07:14:40;100069.78;;;19.41;35.96
60212;BME280;46079;48.686;15.598;2023-03-03T07:17:16;100066.31;;;19.40;36.10
60212;BME280;46079;48.686;15.598;2023-03-03T07:19:42;100076.69;;;19.42;35.78
60212;BME280;46079;48.686;15.598;2023-03-03T07:22:20;100075.72;;;19.43;35.71
60212;BME280;46079;48.686;15.598;2023-03-03T07:24:49;100083.34;;;19.46;35.93
60212;BME280;46079;48.686;15.598;2023-03-03T07:29:46;100094.66;;;19.46;35.90
60212;BME280;46079;48.686;15.598;2023-03-03T07:32:46;100101.59;;;19.47;35.76
60212;BME280;46079;48.686;15.598;2023-03-03T07:37:51;100098.81;;;19.49;35.65
60212;BME280;46079;48.686;15.598;2023-03-03T07:42:56;100109.31;;;19.49;35.62
60212;BME280;46079;48.686;15.598;2023-03-03T07:45:26;100112.78;;;19.49;35.93
60212;BME280;46079;48.686;15.598;2023-03-03T07:48:05;100111.13;;;19.48;35.77
60212;BME280;46079;48.686;15.598;2023-03-03T07:50:33;100109.31;;;19.49;35.59
60212;BME280;46079;48.686;15.598;2023-03-03T07:53:00;100110.16;;;19.49;35.57
60212;BME280;46079;48.686;15.598;2023-03-03T07:55:36;100110.16;;;19.49;35.67
60212;BME280;46079;48.686;15.598;2023-03-03T08:03:36;100102.16;;;19.51;35.92
60212;BME280;46079;48.686;15.598;2023-03-03T08:06:23;100106.59;;;19.50;35.44
60212;BME280;46079;48.686;15.598;2023-03-03T08:08:54;100101.06;;;19.53;35.57
60212;BME280;46079;48.686;15.598;2023-03-03T08:11:19;100101.91;;;19.54;35.67
60212;BME280;46079;48.686;15.598;2023-03-03T08:13:45;100100.09;;;19.54;35.73
60212;BME280;46079;48.686;15.598;2023-03-03T08:18:44;100094.75;;;19.56;35.66
60212;BME280;46079;48.686;15.598;2023-03-03T08:21:24;100095.56;;;19.57;35.54
60212;BME280;46079;48.686;15.598;2023-03-03T08:23:51;100097.22;;;19.58;35.46
60212;BME280;46079;48.686;15.598;2023-03-03T08:26:22;100093.66;;;19.59;35.51
60212;BME280;46079;48.686;15.598;2023-03-03T08:28:51;100099.72;;;19.59;35.66
60212;BME280;46079;48.686;15.598;2023-03-03T08:31:17;100102.22;;;19.61;35.73
60212;BME280;46079;48.686;15.598;2023-03-03T08:33:43;100103.88;;;19.62;35.58
60212;BME280;46079;48.686;15.598;2023-03-03T08:36:08;100108.16;;;19.63;35.43
60212;BME280;46079;48.686;15.598;2023-03-03T08:38:34;100114.13;;;19.65;35.65
60212;BME280;46079;48.686;15.598;2023-03-03T08:41:00;100115.81;;;19.66;35.21
60212;BME280;46079;48.686;15.598;2023-03-03T08:43:26;100114.00;;;19.66;35.57
60212;BME280;46079;48.686;15.598;2023-03-03T08:45:53;100119.16;;;19.68;35.50
60212;BME280;46079;48.686;15.598;2023-03-03T08:48:22;100125.22;;;19.68;35.31
60212;BME280;46079;48.686;15.598;2023-03-03T08:50:48;100123.44;;;19.69;35.25
60212;BME280;46079;48.686;15.598;2023-03-03T08:53:14;100120.81;;;19.69;35.52
60212;BME280;46079;48.686;15.598;2023-03-03T08:55:41;100122.47;;;19.70;35.39
60212;BME280;46079;48.686;15.598;2023-03-03T08:58:06;100122.47;;;19.70;35.14
60212;BME280;46079;48.686;15.598;2023-03-03T09:00:32;100126.91;;;19.69;35.65
60212;BME280;46079;48.686;15.598;2023-03-03T09:02:57;100135.59;;;19.70;35.31
60212;BME280;46079;48.686;15.598;2023-03-03T09:05:23;100132.97;;;19.70;35.39
60212;BME280;46079;48.686;15.598;2023-03-03T09:07:49;100132.00;;;19.71;35.25
60212;BME280;46079;48.686;15.598;2023-03-03T09:10:21;100132.97;;;19.70;35.35
60212;BME280;46079;48.686;15.598;2023-03-03T09:12:51;100132.16;;;19.69;35.33
60212;BME280;46079;48.686;15.598;2023-03-03T09:17:48;100140.72;;;19.71;35.54
60212;BME280;46079;48.686;15.598;2023-03-03T09:20:27;100139.16;;;19.69;35.56
60212;BME280;46079;48.686;15.598;2023-03-03T09:22:54;100150.53;;;19.69;35.45
60212;BME280;46079;48.686;15.598;2023-03-03T09:25:34;100147.03;;;19.69;35.33
60212;BME280;46079;48.686;15.598;2023-03-03T09:28:01;100147.03;;;19.69;35.32
60212;BME280;46079;48.686;15.598;2023-03-03T09:30:37;100145.41;;;19.68;35.42
60212;BME280;46079;48.686;15.598;2023-03-03T09:33:24;100153.25;;;19.68;35.28
60212;BME280;46079;48.686;15.598;2023-03-03T09:36:02;100152.44;;;19.67;35.22
60212;BME280;46079;48.686;15.598;2023-03-03T09:38:30;100152.44;;;19.67;35.47
60212;BME280;46079;48.686;15.598;2023-03-03T09:52:09;100144.78;;;19.64;35.56
60212;BME280;46079;48.686;15.598;2023-03-03T09:55:06;100141.34;;;19.64;35.49
60212;BME280;46079;48.686;15.598;2023-03-03T10:06:30;100145.06;;;19.61;35.46
60212;BME280;46079;48.686;15.598;2023-03-03T10:15:55;100139.09;;;19.59;35.42
60212;BME280;46079;48.686;15.598;2023-03-03T10:17:52;100136.47;;;19.59;35.52
60212;BME280;46079;48.686;15.598;2023-03-03T10:23:29;100131.22;;;19.59;35.52
60212;BME280;46079;48.686;15.598;2023-03-03T10:26:08;100124.31;;;19.58;35.66
60212;BME280;46079;48.686;15.598;2023-03-03T10:31:49;100115.59;;;19.58;35.70
60212;BME280;46079;48.686;15.598;2023-03-03T10:38:01;100106.06;;;19.57;35.45
60212;BME280;46079;48.686;15.598;2023-03-03T10:40:07;100095.56;;;19.57;35.59
60212;BME280;46079;48.686;15.598;2023-03-03T10:43:16;100092.22;;;19.54;35.68
60212;BME280;46079;48.686;15.598;2023-03-03T10:51:43;100080.09;;;19.53;35.56
60212;BME280;46079;48.686;15.598;2023-03-03T11:00:30;100089.88;;;19.51;35.77
60212;BME280;46079;48.686;15.598;2023-03-03T11:03:32;100083.66;;;19.52;35.43
60212;BME280;46079;48.686;15.598;2023-03-03T11:06:24;100097.75;;;19.51;35.70
60212;BME280;46079;48.686;15.598;2023-03-03T11:09:15;100090.84;;;19.50;35.64
60212;BME280;46079;48.686;15.598;2023-03-03T11:12:04;100092.75;;;19.48;35.52
60212;BME280;46079;48.686;15.598;2023-03-03T11:14:43;100100.63;;;19.48;35.61
60212;BME280;46079;48.686;15.598;2023-03-03T11:25:57;100097.16;;;19.48;35.86
60212;BME280;46079;48.686;15.598;2023-03-03T11:31:40;100087.50;;;19.48;35.71
60212;BME280;46079;48.686;15.598;2023-03-03T11:34:22;100082.38;;;19.47;35.71
60212;BME280;46079;48.686;15.598;2023-03-03T11:37:17;100082.50;;;19.45;35.86
60212;BME280;46079;48.686;15.598;2023-03-03T11:39:42;100077.28;;;19.45;35.73
60212;BME280;46079;48.686;15.598;2023-03-03T11:42:23;100072.84;;;19.46;35.88
60212;BME280;46079;48.686;15.598;2023-03-03T11:45:00;100075.59;;;19.44;35.78
60212;BME280;46079;48.686;15.598;2023-03-03T11:47:51;100062.47;;;19.44;36.06
60212;BME280;46079;48.686;15.598;2023-03-03T11:50:30;100059.84;;;19.44;35.63
60212;BME280;46079;48.686;15.598;2023-03-03T11:55:53;100059.03;;;19.44;35.91
60212;BME280;46079;48.686;15.598;2023-03-03T11:58:30;100058.34;;;19.42;35.81
60212;BME280;46079;48.686;15.598;2023-03-03T12:01:22;100054.03;;;19.41;35.70
60212;BME280;46079;48.686;15.598;2023-03-03T12:04:01;100043.53;;;19.41;35.97
60212;BME280;46079;48.686;15.598;2023-03-03T12:12:07;100027.94;;;19.39;35.88
60212;BME280;46079;48.686;15.598;2023-03-03T12:15:05;100021.72;;;19.40;35.88
60212;BME280;46079;48.686;15.598;2023-03-03T12:28:57;100013.16;;;19.38;36.11
60212;BME280;46079;48.686;15.598;2023-03-03T12:33:58;100002.66;;;19.38;35.86
60212;BME280;46079;48.686;15.598;2023-03-03T12:41:58;99988.00;;;19.36;36.20
60212;BME280;46079;48.686;15.598;2023-03-03T12:53:00;99984.56;;;19.35;36.18
60212;BME280;46079;48.686;15.598;2023-03-03T12:58:14;99982.91;;;19.34;36.10
60212;BME280;46079;48.686;15.598;2023-03-03T13:01:11;99978.59;;;19.33;36.31
60212;BME280;46079;48.686;15.598;2023-03-03T13:06:27;99984.72;;;19.33;36.03
60212;BME280;46079;48.686;15.598;2023-03-03T13:14:26;99972.53;;;19.32;36.06
60212;BME280;46079;48.686;15.598;2023-03-03T13:20:17;99966.47;;;19.32;36.10
60212;BME280;46079;48.686;15.598;2023-03-03T13:25:48;99962.19;;;19.31;36.17
60212;BME280;46079;48.686;15.598;2023-03-03T13:28:47;99959.41;;;19.32;36.37
60212;BME280;46079;48.686;15.598;2023-03-03T13:31:20;99954.31;;;19.31;36.17
60212;BME280;46079;48.686;15.598;2023-03-03T13:33:57;99960.41;;;19.31;36.11
60212;BME280;46079;48.686;15.598;2023-03-03T13:36:49;99950.84;;;19.30;36.12
60212;BME280;46079;48.686;15.598;2023-03-03T13:39:24;99956.94;;;19.31;36.68
60212;BME280;46079;48.686;15.598;2023-03-03T13:42:03;99957.78;;;19.31;36.27
60212;BME280;46079;48.686;15.598;2023-03-03T13:44:35;99950.00;;;19.30;36.29
60212;BME280;46079;48.686;15.598;2023-03-03T13:58:34;99950.00;;;19.30;36.33
60212;BME280;46079;48.686;15.598;2023-03-03T14:01:14;99944.09;;;19.28;36.43
60212;BME280;46079;48.686;15.598;2023-03-03T14:06:27;99939.69;;;19.28;36.48
60212;BME280;46079;48.686;15.598;2023-03-03T14:11:45;99945.84;;;19.27;36.26
60212;BME280;46079;48.686;15.598;2023-03-03T14:17:02;99938.84;;;19.28;36.40
60212;BME280;46079;48.686;15.598;2023-03-03T14:19:35;99932.75;;;19.27;36.43
60212;BME280;46079;48.686;15.598;2023-03-03T14:25:06;99932.75;;;19.27;36.32
60212;BME280;46079;48.686;15.598;2023-03-03T14:28:07;99925.84;;;19.26;36.41
60212;BME280;46079;48.686;15.598;2023-03-03T14:30:40;99924.06;;;19.27;36.22
60212;BME280;46079;48.686;15.598;2023-03-03T14:40:36;99919.78;;;19.26;36.42
60212;BME280;46079;48.686;15.598;2023-03-03T14:45:45;99917.16;;;19.26;36.48
60212;BME280;46079;48.686;15.598;2023-03-03T14:48:16;99924.19;;;19.25;36.51
60212;BME280;46079;48.686;15.598;2023-03-03T14:50:48;99925.97;;;19.25;36.31
60212;BME280;46079;48.686;15.598;2023-03-03T14:55:45;99921.59;;;19.25;36.27
60212;BME280;46079;48.686;15.598;2023-03-03T14:58:41;99918.97;;;19.25;36.51
60212;BME280;46079;48.686;15.598;2023-03-03T15:01:24;99922.53;;;19.24;36.55
60212;BME280;46079;48.686;15.598;2023-03-03T15:06:43;99922.53;;;19.24;36.35
60212;BME280;46079;48.686;15.598;2023-03-03T15:09:36;99927.75;;;19.24;36.41
60212;BME280;46079;48.686;15.598;2023-03-03T15:12:21;99920.88;;;19.23;36.59
60212;BME280;46079;48.686;15.598;2023-03-03T15:20:23;99919.06;;;19.24;36.44
60212;BME280;46079;48.686;15.598;2023-03-03T15:22:53;99911.22;;;19.24;36.41
60212;BME280;46079;48.686;15.598;2023-03-03T15:28:53;99916.56;;;19.22;36.62
60212;BME280;46079;48.686;15.598;2023-03-03T15:36:52;99918.38;;;19.22;36.64
60212;BME280;46079;48.686;15.598;2023-03-03T15:42:12;99921.00;;;19.22;36.57
60212;BME280;46079;48.686;15.598;2023-03-03T15:44:57;99914.09;;;19.21;36.53
60212;BME280;46079;48.686;15.598;2023-03-03T16:01:34;99925.56;;;19.20;36.46
60212;BME280;46079;48.686;15.598;2023-03-03T16:04:12;99925.66;;;19.18;36.66
60212;BME280;46079;48.686;15.598;2023-03-03T16:07:05;99923.88;;;19.19;36.54
60212;BME280;46079;48.686;15.598;2023-03-03T16:09:53;99929.13;;;19.19;36.45
60212;BME280;46079;48.686;15.598;2023-03-03T16:15:31;99930.09;;;19.18;36.65
60212;BME280;46079;48.686;15.598;2023-03-03T16:20:53;99930.09;;;19.18;36.47
60212;BME280;46079;48.686;15.598;2023-03-03T16:26:09;99933.66;;;19.17;36.47
60212;BME280;46079;48.686;15.598;2023-03-03T16:31:35;99937.25;;;19.16;36.63
60212;BME280;46079;48.686;15.598;2023-03-03T16:34:59;99938.22;;;19.15;36.62
60212;BME280;46079;48.686;15.598;2023-03-03T16:40:16;99953.94;;;19.15;36.62
60212;BME280;46079;48.686;15.598;2023-03-03T16:42:46;99956.56;;;19.15;36.80
60212;BME280;46079;48.686;15.598;2023-03-03T16:45:26;99953.94;;;19.15;36.73
60212;BME280;46079;48.686;15.598;2023-03-03T17:01:00;99968.00;;;19.14;36.82